sensor_id;sensor_type;location;lat;lon;timestamp;temperature;humidity
12130;DHT22;6128;59.340;18.040;2023-03-01T00:02:20;4.20;99.90
12130;DHT22;6128;59.340;18.040;2023-03-01T00:04:47;4.20;99.90
12130;DHT22;6128;59.340;18.040;2023-03-01T00:07:14;4.10;99.90
12130;DHT22;6128;59.340;18.040;2023-03-01T00:09:42;4.10;99.90
12130;DHT22;6128;59.340;18.040;2023-03-01T00:12:12;4.10;99.90
12130;DHT22;6128;59.340;18.040;2023-03-01T00:14:40;4.10;99.90
12130;DHT22;6128;59.340;18.040;2023-03-01T00:17:07;4.00;99.90
12130;DHT22;6128;59.340;18.040;2023-03-01T00:19:34;4.00;99.90
12130;DHT22;6128;59.340;18.040;2023-03-01T00:22:01;4.00;99.90
12130;DHT22;6128;59.340;18.040;2023-03-01T00:24:29;4.00;99.90
12130;DHT22;6128;59.340;18.040;2023-03-01T00:26:56;3.90;99.90
12130;DHT22;6128;59.340;18.040;2023-03-01T00:29:24;3.90;99.90
12130;DHT22;6128;59.340;18.040;2023-03-01T00:31:51;3.90;99.90
12130;DHT22;6128;59.340;18.040;2023-03-01T00:34:19;3.90;99.90
12130;DHT22;6128;59.340;18.040;2023-03-01T00:36:46;3.80;99.90
12130;DHT22;6128;59.340;18.040;2023-03-01T00:39:15;3.80;99.90
12130;DHT22;6128;59.340;18.040;2023-03-01T00:41:42;3.80;99.90
12130;DHT22;6128;59.340;18.040;2023-03-01T00:44:10;3.80;99.90
12130;DHT22;6128;59.340;18.040;2023-03-01T00:46:38;3.80;99.90
12130;DHT22;6128;59.340;18.040;2023-03-01T00:49:06;3.70;99.90
12130;DHT22;6128;59.340;18.040;2023-03-01T00:51:33;3.70;99.90
12130;DHT22;6128;59.340;18.040;2023-03-01T00:54:02;3.70;99.90
12130;DHT22;6128;59.340;18.040;2023-03-01T00:56:29;3.70;99.90
12130;DHT22;6128;59.340;18.040;2023-03-01T00:58:57;3.60;99.90
12130;DHT22;6128;59.340;18.040;2023-03-01T01:01:26;3.60;99.90
12130;DHT22;6128;59.340;18.040;2023-03-01T01:03:59;3.50;99.90
12130;DHT22;6128;59.340;18.040;2023-03-01T01:06:28;3.50;99.90
12130;DHT22;6128;59.340;18.040;2023-03-01T01:08:56;3.50;99.90
12130;DHT22;6128;59.340;18.040;2023-03-01T01:11:25;3.50;99.90
12130;DHT22;6128;59.340;18.040;2023-03-01T01:13:53;3.40;99.90
12130;DHT22;6128;59.340;18.040;2023-03-01T01:16:22;3.40;99.90
12130;DHT22;6128;59.340;18.040;2023-03-01T01:18:50;3.40;99.90
12130;DHT22;6128;59.340;18.040;2023-03-01T01:21:21;3.40;99.90
12130;DHT22;6128;59.340;18.040;2023-03-01T01:23:50;3.30;99.90
12130;DHT22;6128;59.340;18.040;2023-03-01T01:26:19;3.30;99.90
12130;DHT22;6128;59.340;18.040;2023-03-01T01:28:47;3.30;99.90
12130;DHT22;6128;59.340;18.040;2023-03-01T01:31:15;3.30;99.90
12130;DHT22;6128;59.340;18.040;2023-03-01T01:33:42;3.30;99.90
12130;DHT22;6128;59.340;18.040;2023-03-01T01:36:10;3.30;99.90
12130;DHT22;6128;59.340;18.040;2023-03-01T01:38:39;3.30;99.90
12130;DHT22;6128;59.340;18.040;2023-03-01T01:41:08;3.30;99.90
12130;DHT22;6128;59.340;18.040;2023-03-01T01:43:39;3.30;99.90
12130;DHT22;6128;59.340;18.040;2023-03-01T01:46:15;3.30;99.90
12130;DHT22;6128;59.340;18.040;2023-03-01T01:48:45;3.30;99.90
12130;DHT22;6128;59.340;18.040;2023-03-01T01:51:19;3.30;99.90
12130;DHT22;6128;59.340;18.040;2023-03-01T01:53:52;3.30;99.90
12130;DHT22;6128;59.340;18.040;2023-03-01T01:56:21;3.30;99.90
12130;DHT22;6128;59.340;18.040;2023-03-01T01:58:50;3.30;99.90
12130;DHT22;6128;59.340;18.040;2023-03-01T02:01:17;3.30;99.90
12130;DHT22;6128;59.340;18.040;2023-03-01T02:03:47;3.30;99.90
12130;DHT22;6128;59.340;18.040;2023-03-01T02:06:19;3.30;99.90
12130;DHT22;6128;59.340;18.040;2023-03-01T02:08:49;3.30;99.90
12130;DHT22;6128;59.340;18.040;2023-03-01T02:11:19;3.30;99.90
12130;DHT22;6128;59.340;18.040;2023-03-01T02:13:50;3.20;99.90
12130;DHT22;6128;59.340;18.040;2023-03-01T02:16:20;3.20;99.90
12130;DHT22;6128;59.340;18.040;2023-03-01T02:18:47;3.20;99.90
12130;DHT22;6128;59.340;18.040;2023-03-01T02:21:29;3.10;99.90
12130;DHT22;6128;59.340;18.040;2023-03-01T02:24:03;3.10;99.90
12130;DHT22;6128;59.340;18.040;2023-03-01T02:26:40;3.10;99.90
12130;DHT22;6128;59.340;18.040;2023-03-01T02:29:10;3.10;99.90
12130;DHT22;6128;59.340;18.040;2023-03-01T02:31:38;3.10;99.90
12130;DHT22;6128;59.340;18.040;2023-03-01T02:34:13;3.00;99.90
12130;DHT22;6128;59.340;18.040;2023-03-01T02:36:44;3.00;99.90
12130;DHT22;6128;59.340;18.040;2023-03-01T02:39:15;3.00;99.90
12130;DHT22;6128;59.340;18.040;2023-03-01T02:41:47;3.00;99.90
12130;DHT22;6128;59.340;18.040;2023-03-01T02:44:16;2.90;99.90
12130;DHT22;6128;59.340;18.040;2023-03-01T02:46:46;2.90;99.90
12130;DHT22;6128;59.340;18.040;2023-03-01T02:49:20;2.90;99.90
12130;DHT22;6128;59.340;18.040;2023-03-01T02:54:40;2.80;99.90
12130;DHT22;6128;59.340;18.040;2023-03-01T02:57:08;2.80;99.90
12130;DHT22;6128;59.340;18.040;2023-03-01T02:59:38;2.80;99.90
12130;DHT22;6128;59.340;18.040;2023-03-01T03:02:06;2.70;99.90
12130;DHT22;6128;59.340;18.040;2023-03-01T03:04:34;2.70;99.90
12130;DHT22;6128;59.340;18.040;2023-03-01T03:07:01;2.70;99.90
12130;DHT22;6128;59.340;18.040;2023-03-01T03:09:28;2.70;99.90
12130;DHT22;6128;59.340;18.040;2023-03-01T03:11:59;2.60;99.90
12130;DHT22;6128;59.340;18.040;2023-03-01T03:14:26;2.60;99.90
12130;DHT22;6128;59.340;18.040;2023-03-01T03:16:55;2.60;99.90
12130;DHT22;6128;59.340;18.040;2023-03-01T03:19:22;2.60;99.90
12130;DHT22;6128;59.340;18.040;2023-03-01T03:21:49;2.60;99.90
12130;DHT22;6128;59.340;18.040;2023-03-01T03:24:16;2.50;99.90
12130;DHT22;6128;59.340;18.040;2023-03-01T03:26:43;2.50;99.90
12130;DHT22;6128;59.340;18.040;2023-03-01T03:29:11;2.50;99.90
12130;DHT22;6128;59.340;18.040;2023-03-01T03:31:37;2.40;99.90
12130;DHT22;6128;59.340;18.040;2023-03-01T03:34:07;2.40;99.90
12130;DHT22;6128;59.340;18.040;2023-03-01T03:36:41;2.40;99.90
12130;DHT22;6128;59.340;18.040;2023-03-01T03:39:08;2.40;99.90
12130;DHT22;6128;59.340;18.040;2023-03-01T03:41:35;2.40;99.90
12130;DHT22;6128;59.340;18.040;2023-03-01T03:44:03;2.40;99.90
12130;DHT22;6128;59.340;18.040;2023-03-01T03:46:30;2.30;99.90
12130;DHT22;6128;59.340;18.040;2023-03-01T03:48:57;2.30;99.90
12130;DHT22;6128;59.340;18.040;2023-03-01T03:51:26;2.30;99.90
12130;DHT22;6128;59.340;18.040;2023-03-01T03:53:53;2.20;99.90
12130;DHT22;6128;59.340;18.040;2023-03-01T03:56:20;2.20;99.90
12130;DHT22;6128;59.340;18.040;2023-03-01T03:58:51;2.20;99.90
12130;DHT22;6128;59.340;18.040;2023-03-01T04:01:19;2.20;99.90
12130;DHT22;6128;59.340;18.040;2023-03-01T04:03:49;2.20;99.90
12130;DHT22;6128;59.340;18.040;2023-03-01T04:06:20;2.20;99.90
12130;DHT22;6128;59.340;18.040;2023-03-01T04:08:50;2.10;99.90
12130;DHT22;6128;59.340;18.040;2023-03-01T04:11:25;2.00;99.90
12130;DHT22;6128;59.340;18.040;2023-03-01T04:13:54;1.90;99.90
12130;DHT22;6128;59.340;18.040;2023-03-01T04:16:22;1.90;99.90
12130;DHT22;6128;59.340;18.040;2023-03-01T04:18:52;1.80;99.90
12130;DHT22;6128;59.340;18.040;2023-03-01T04:21:25;1.70;99.90
12130;DHT22;6128;59.340;18.040;2023-03-01T04:23:57;1.70;99.90
12130;DHT22;6128;59.340;18.040;2023-03-01T04:26:24;1.70;99.90
12130;DHT22;6128;59.340;18.040;2023-03-01T04:28:51;1.60;99.90
12130;DHT22;6128;59.340;18.040;2023-03-01T04:31:19;1.60;99.90
12130;DHT22;6128;59.340;18.040;2023-03-01T04:33:48;1.60;99.90
12130;DHT22;6128;59.340;18.040;2023-03-01T04:36:18;1.60;99.90
12130;DHT22;6128;59.340;18.040;2023-03-01T04:38:45;1.60;99.90
12130;DHT22;6128;59.340;18.040;2023-03-01T04:41:16;1.60;99.90
12130;DHT22;6128;59.340;18.040;2023-03-01T04:43:44;1.60;99.90
12130;DHT22;6128;59.340;18.040;2023-03-01T04:46:13;1.60;99.90
12130;DHT22;6128;59.340;18.040;2023-03-01T04:48:42;1.60;99.90
12130;DHT22;6128;59.340;18.040;2023-03-01T04:51:10;1.60;99.90
12130;DHT22;6128;59.340;18.040;2023-03-01T04:53:39;1.60;99.90
12130;DHT22;6128;59.340;18.040;2023-03-01T04:56:07;1.70;99.90
12130;DHT22;6128;59.340;18.040;2023-03-01T04:58:36;1.60;99.90
12130;DHT22;6128;59.340;18.040;2023-03-01T05:01:08;1.70;99.90
12130;DHT22;6128;59.340;18.040;2023-03-01T05:03:41;1.70;99.90
12130;DHT22;6128;59.340;18.040;2023-03-01T05:06:09;1.70;99.90
12130;DHT22;6128;59.340;18.040;2023-03-01T05:08:37;1.70;99.90
12130;DHT22;6128;59.340;18.040;2023-03-01T05:11:04;1.60;99.90
12130;DHT22;6128;59.340;18.040;2023-03-01T05:13:36;1.70;99.90
12130;DHT22;6128;59.340;18.040;2023-03-01T05:16:05;1.60;99.90
12130;DHT22;6128;59.340;18.040;2023-03-01T05:18:33;1.50;99.90
12130;DHT22;6128;59.340;18.040;2023-03-01T05:21:04;1.50;99.90
12130;DHT22;6128;59.340;18.040;2023-03-01T05:23:32;1.50;99.90
12130;DHT22;6128;59.340;18.040;2023-03-01T05:25:59;1.50;99.90
12130;DHT22;6128;59.340;18.040;2023-03-01T05:28:27;1.50;99.90
12130;DHT22;6128;59.340;18.040;2023-03-01T05:30:57;1.40;99.90
12130;DHT22;6128;59.340;18.040;2023-03-01T05:33:24;1.40;99.90
12130;DHT22;6128;59.340;18.040;2023-03-01T05:35:52;1.30;99.90
12130;DHT22;6128;59.340;18.040;2023-03-01T05:38:20;1.30;99.90
12130;DHT22;6128;59.340;18.040;2023-03-01T05:40:48;1.30;99.90
12130;DHT22;6128;59.340;18.040;2023-03-01T05:43:17;1.20;99.90
12130;DHT22;6128;59.340;18.040;2023-03-01T05:45:44;1.20;99.90
12130;DHT22;6128;59.340;18.040;2023-03-01T05:48:14;1.20;99.90
12130;DHT22;6128;59.340;18.040;2023-03-01T05:50:43;1.20;99.90
12130;DHT22;6128;59.340;18.040;2023-03-01T05:53:12;1.20;99.90
12130;DHT22;6128;59.340;18.040;2023-03-01T05:55:39;1.20;99.90
12130;DHT22;6128;59.340;18.040;2023-03-01T05:58:09;1.30;99.90
12130;DHT22;6128;59.340;18.040;2023-03-01T06:00:38;1.30;99.90
12130;DHT22;6128;59.340;18.040;2023-03-01T06:03:05;1.40;99.90
12130;DHT22;6128;59.340;18.040;2023-03-01T06:05:34;1.40;99.90
12130;DHT22;6128;59.340;18.040;2023-03-01T06:08:01;1.30;99.90
12130;DHT22;6128;59.340;18.040;2023-03-01T06:10:29;1.30;99.90
12130;DHT22;6128;59.340;18.040;2023-03-01T06:12:57;1.30;99.90
12130;DHT22;6128;59.340;18.040;2023-03-01T06:15:25;1.30;99.90
12130;DHT22;6128;59.340;18.040;2023-03-01T06:17:54;1.30;99.90
12130;DHT22;6128;59.340;18.040;2023-03-01T06:20:24;1.30;99.90
12130;DHT22;6128;59.340;18.040;2023-03-01T06:22:52;1.30;99.90
12130;DHT22;6128;59.340;18.040;2023-03-01T06:25:22;1.40;99.90
12130;DHT22;6128;59.340;18.040;2023-03-01T06:27:50;1.30;99.90
12130;DHT22;6128;59.340;18.040;2023-03-01T06:30:19;1.40;99.90
12130;DHT22;6128;59.340;18.040;2023-03-01T06:32:47;1.40;99.90
12130;DHT22;6128;59.340;18.040;2023-03-01T06:35:16;1.50;99.90
12130;DHT22;6128;59.340;18.040;2023-03-01T06:37:44;1.50;99.90
12130;DHT22;6128;59.340;18.040;2023-03-01T06:40:14;1.60;99.90
12130;DHT22;6128;59.340;18.040;2023-03-01T06:42:43;1.60;99.90
12130;DHT22;6128;59.340;18.040;2023-03-01T06:45:11;1.50;99.90
12130;DHT22;6128;59.340;18.040;2023-03-01T06:47:38;1.60;99.90
12130;DHT22;6128;59.340;18.040;2023-03-01T06:50:06;1.60;99.90
12130;DHT22;6128;59.340;18.040;2023-03-01T06:52:33;1.70;99.90
12130;DHT22;6128;59.340;18.040;2023-03-01T06:55:00;1.70;99.90
12130;DHT22;6128;59.340;18.040;2023-03-01T06:57:29;1.80;99.90
12130;DHT22;6128;59.340;18.040;2023-03-01T06:59:58;1.90;99.90
12130;DHT22;6128;59.340;18.040;2023-03-01T07:02:25;1.90;99.90
12130;DHT22;6128;59.340;18.040;2023-03-01T07:04:52;2.00;99.90
12130;DHT22;6128;59.340;18.040;2023-03-01T07:07:19;2.10;99.90
12130;DHT22;6128;59.340;18.040;2023-03-01T07:09:48;2.20;99.90
12130;DHT22;6128;59.340;18.040;2023-03-01T07:12:15;2.20;99.90
12130;DHT22;6128;59.340;18.040;2023-03-01T07:14:45;2.30;99.90
12130;DHT22;6128;59.340;18.040;2023-03-01T07:17:12;2.40;99.90
12130;DHT22;6128;59.340;18.040;2023-03-01T07:19:39;2.50;99.90
12130;DHT22;6128;59.340;18.040;2023-03-01T07:22:06;2.80;99.90
12130;DHT22;6128;59.340;18.040;2023-03-01T07:24:38;3.30;99.90
12130;DHT22;6128;59.340;18.040;2023-03-01T07:27:05;3.80;99.90
12130;DHT22;6128;59.340;18.040;2023-03-01T07:29:32;4.40;99.90
12130;DHT22;6128;59.340;18.040;2023-03-01T07:32:04;5.00;99.90
12130;DHT22;6128;59.340;18.040;2023-03-01T07:34:31;5.80;99.90
12130;DHT22;6128;59.340;18.040;2023-03-01T07:36:58;6.40;99.90
12130;DHT22;6128;59.340;18.040;2023-03-01T07:39:25;6.90;99.90
12130;DHT22;6128;59.340;18.040;2023-03-01T07:41:52;7.20;99.90
12130;DHT22;6128;59.340;18.040;2023-03-01T07:44:20;7.60;99.90
12130;DHT22;6128;59.340;18.040;2023-03-01T07:46:47;7.90;99.90
12130;DHT22;6128;59.340;18.040;2023-03-01T07:49:15;8.30;99.90
12130;DHT22;6128;59.340;18.040;2023-03-01T07:51:43;8.60;99.90
12130;DHT22;6128;59.340;18.040;2023-03-01T07:54:10;8.70;99.90
12130;DHT22;6128;59.340;18.040;2023-03-01T07:56:37;9.10;99.90
12130;DHT22;6128;59.340;18.040;2023-03-01T07:59:06;9.50;99.90
12130;DHT22;6128;59.340;18.040;2023-03-01T08:01:33;9.80;99.90
12130;DHT22;6128;59.340;18.040;2023-03-01T08:04:00;9.90;99.90
12130;DHT22;6128;59.340;18.040;2023-03-01T08:06:29;10.20;99.90
12130;DHT22;6128;59.340;18.040;2023-03-01T08:08:56;10.80;99.90
12130;DHT22;6128;59.340;18.040;2023-03-01T08:11:23;11.00;99.90
12130;DHT22;6128;59.340;18.040;2023-03-01T08:13:51;11.40;99.90
12130;DHT22;6128;59.340;18.040;2023-03-01T08:16:18;11.80;99.90
12130;DHT22;6128;59.340;18.040;2023-03-01T08:18:45;12.20;99.90
12130;DHT22;6128;59.340;18.040;2023-03-01T08:21:13;12.20;99.90
12130;DHT22;6128;59.340;18.040;2023-03-01T08:23:42;12.20;99.90
12130;DHT22;6128;59.340;18.040;2023-03-01T08:26:11;12.50;99.90
12130;DHT22;6128;59.340;18.040;2023-03-01T08:28:39;12.70;99.90
12130;DHT22;6128;59.340;18.040;2023-03-01T08:31:17;12.90;99.90
12130;DHT22;6128;59.340;18.040;2023-03-01T08:33:45;13.00;99.90
12130;DHT22;6128;59.340;18.040;2023-03-01T08:36:16;13.00;99.90
12130;DHT22;6128;59.340;18.040;2023-03-01T08:38:45;13.30;99.90
12130;DHT22;6128;59.340;18.040;2023-03-01T08:41:12;13.50;99.90
12130;DHT22;6128;59.340;18.040;2023-03-01T08:43:40;13.50;99.90
12130;DHT22;6128;59.340;18.040;2023-03-01T08:46:07;13.50;99.90
12130;DHT22;6128;59.340;18.040;2023-03-01T08:48:37;13.60;99.90
12130;DHT22;6128;59.340;18.040;2023-03-01T08:51:08;13.60;99.90
12130;DHT22;6128;59.340;18.040;2023-03-01T08:53:35;13.50;99.90
12130;DHT22;6128;59.340;18.040;2023-03-01T08:56:04;13.60;99.90
12130;DHT22;6128;59.340;18.040;2023-03-01T08:58:32;13.80;99.90
12130;DHT22;6128;59.340;18.040;2023-03-01T09:01:00;13.90;99.90
12130;DHT22;6128;59.340;18.040;2023-03-01T09:03:27;13.90;99.90
12130;DHT22;6128;59.340;18.040;2023-03-01T09:06:00;13.90;99.90
12130;DHT22;6128;59.340;18.040;2023-03-01T09:08:27;13.70;99.90
12130;DHT22;6128;59.340;18.040;2023-03-01T09:10:54;13.20;99.90
12130;DHT22;6128;59.340;18.040;2023-03-01T09:13:23;12.20;99.90
12130;DHT22;6128;59.340;18.040;2023-03-01T09:15:51;11.30;99.90
12130;DHT22;6128;59.340;18.040;2023-03-01T09:18:18;10.80;99.90
12130;DHT22;6128;59.340;18.040;2023-03-01T09:20:45;10.50;99.90
12130;DHT22;6128;59.340;18.040;2023-03-01T09:23:13;10.00;99.90
12130;DHT22;6128;59.340;18.040;2023-03-01T09:25:40;9.40;99.90
12130;DHT22;6128;59.340;18.040;2023-03-01T09:28:07;8.90;99.90
12130;DHT22;6128;59.340;18.040;2023-03-01T09:30:37;8.50;99.90
12130;DHT22;6128;59.340;18.040;2023-03-01T09:33:05;8.10;99.90
12130;DHT22;6128;59.340;18.040;2023-03-01T09:35:32;7.90;99.90
12130;DHT22;6128;59.340;18.040;2023-03-01T09:38:00;7.60;99.90
12130;DHT22;6128;59.340;18.040;2023-03-01T09:40:28;7.50;99.90
12130;DHT22;6128;59.340;18.040;2023-03-01T09:43:04;7.30;99.90
12130;DHT22;6128;59.340;18.040;2023-03-01T09:45:39;7.20;99.90
12130;DHT22;6128;59.340;18.040;2023-03-01T09:48:15;7.10;99.90
12130;DHT22;6128;59.340;18.040;2023-03-01T09:50:43;7.00;99.90
12130;DHT22;6128;59.340;18.040;2023-03-01T09:53:14;6.90;99.90
12130;DHT22;6128;59.340;18.040;2023-03-01T09:55:44;6.80;99.90
12130;DHT22;6128;59.340;18.040;2023-03-01T09:58:34;6.60;99.90
12130;DHT22;6128;59.340;18.040;2023-03-01T10:01:18;6.50;99.90
12130;DHT22;6128;59.340;18.040;2023-03-01T10:04:00;6.40;99.90
12130;DHT22;6128;59.340;18.040;2023-03-01T10:06:29;6.40;99.90
12130;DHT22;6128;59.340;18.040;2023-03-01T10:08:57;6.40;99.90
12130;DHT22;6128;59.340;18.040;2023-03-01T10:11:28;6.40;99.90
12130;DHT22;6128;59.340;18.040;2023-03-01T10:13:59;6.50;99.90
12130;DHT22;6128;59.340;18.040;2023-03-01T10:16:48;6.60;99.90
12130;DHT22;6128;59.340;18.040;2023-03-01T10:19:22;6.70;99.90
12130;DHT22;6128;59.340;18.040;2023-03-01T10:21:51;6.80;99.90
12130;DHT22;6128;59.340;18.040;2023-03-01T10:24:19;6.80;99.90
12130;DHT22;6128;59.340;18.040;2023-03-01T10:26:55;6.90;99.90
12130;DHT22;6128;59.340;18.040;2023-03-01T10:29:27;6.90;99.90
12130;DHT22;6128;59.340;18.040;2023-03-01T10:31:58;6.90;99.90
12130;DHT22;6128;59.340;18.040;2023-03-01T10:34:28;6.90;99.90
12130;DHT22;6128;59.340;18.040;2023-03-01T10:36:59;7.00;99.90
12130;DHT22;6128;59.340;18.040;2023-03-01T10:39:31;7.00;99.90
12130;DHT22;6128;59.340;18.040;2023-03-01T10:41:59;7.10;99.90
12130;DHT22;6128;59.340;18.040;2023-03-01T10:44:42;7.10;99.90
12130;DHT22;6128;59.340;18.040;2023-03-01T10:47:19;7.10;99.90
12130;DHT22;6128;59.340;18.040;2023-03-01T10:50:00;7.20;99.90
12130;DHT22;6128;59.340;18.040;2023-03-01T10:52:31;7.20;99.90
12130;DHT22;6128;59.340;18.040;2023-03-01T10:55:02;7.20;99.90
12130;DHT22;6128;59.340;18.040;2023-03-01T10:57:36;7.20;99.90
12130;DHT22;6128;59.340;18.040;2023-03-01T11:00:22;7.20;99.90
12130;DHT22;6128;59.340;18.040;2023-03-01T11:03:10;7.20;99.90
12130;DHT22;6128;59.340;18.040;2023-03-01T11:06:00;7.20;99.90
12130;DHT22;6128;59.340;18.040;2023-03-01T11:08:36;7.20;99.90
12130;DHT22;6128;59.340;18.040;2023-03-01T11:11:24;7.30;99.90
12130;DHT22;6128;59.340;18.040;2023-03-01T11:13:57;7.40;99.90
12130;DHT22;6128;59.340;18.040;2023-03-01T11:16:28;7.50;99.90
12130;DHT22;6128;59.340;18.040;2023-03-01T11:19:00;7.60;99.90
12130;DHT22;6128;59.340;18.040;2023-03-01T11:21:30;7.70;99.90
12130;DHT22;6128;59.340;18.040;2023-03-01T11:24:03;7.80;99.90
12130;DHT22;6128;59.340;18.040;2023-03-01T11:26:34;7.90;99.90
12130;DHT22;6128;59.340;18.040;2023-03-01T11:29:07;7.90;99.90
12130;DHT22;6128;59.340;18.040;2023-03-01T11:31:40;8.00;99.90
12130;DHT22;6128;59.340;18.040;2023-03-01T11:34:11;8.00;99.90
12130;DHT22;6128;59.340;18.040;2023-03-01T11:36:42;8.10;99.90
12130;DHT22;6128;59.340;18.040;2023-03-01T11:39:26;8.10;99.90
12130;DHT22;6128;59.340;18.040;2023-03-01T11:42:02;8.10;99.90
12130;DHT22;6128;59.340;18.040;2023-03-01T11:44:34;8.10;99.90
12130;DHT22;6128;59.340;18.040;2023-03-01T11:47:21;8.10;99.90
12130;DHT22;6128;59.340;18.040;2023-03-01T11:50:06;8.10;99.90
12130;DHT22;6128;59.340;18.040;2023-03-01T11:52:44;8.10;99.90
12130;DHT22;6128;59.340;18.040;2023-03-01T11:55:28;8.10;99.90
12130;DHT22;6128;59.340;18.040;2023-03-01T11:58:14;8.20;99.90
12130;DHT22;6128;59.340;18.040;2023-03-01T12:01:03;8.30;99.90
12130;DHT22;6128;59.340;18.040;2023-03-01T12:03:51;8.30;99.90
12130;DHT22;6128;59.340;18.040;2023-03-01T12:06:36;8.30;99.90
12130;DHT22;6128;59.340;18.040;2023-03-01T12:09:25;8.30;99.90
12130;DHT22;6128;59.340;18.040;2023-03-01T12:12:18;8.30;99.90
12130;DHT22;6128;59.340;18.040;2023-03-01T12:18:03;8.50;99.90
12130;DHT22;6128;59.340;18.040;2023-03-01T12:20:38;8.50;99.90
12130;DHT22;6128;59.340;18.040;2023-03-01T12:23:26;8.60;99.90
12130;DHT22;6128;59.340;18.040;2023-03-01T12:26:00;8.90;99.90
12130;DHT22;6128;59.340;18.040;2023-03-01T12:28:46;9.10;99.90
12130;DHT22;6128;59.340;18.040;2023-03-01T12:34:25;9.20;99.90
12130;DHT22;6128;59.340;18.040;2023-03-01T12:37:13;9.20;99.90
12130;DHT22;6128;59.340;18.040;2023-03-01T12:39:53;9.10;99.90
12130;DHT22;6128;59.340;18.040;2023-03-01T12:42:29;9.00;99.90
12130;DHT22;6128;59.340;18.040;2023-03-01T12:45:15;8.90;99.90
12130;DHT22;6128;59.340;18.040;2023-03-01T12:47:59;8.90;99.90
12130;DHT22;6128;59.340;18.040;2023-03-01T12:50:39;8.80;99.90
12130;DHT22;6128;59.340;18.040;2023-03-01T12:53:21;8.80;99.90
12130;DHT22;6128;59.340;18.040;2023-03-01T12:55:51;8.80;99.90
12130;DHT22;6128;59.340;18.040;2023-03-01T12:58:25;8.80;99.90
12130;DHT22;6128;59.340;18.040;2023-03-01T13:01:03;8.90;99.90
12130;DHT22;6128;59.340;18.040;2023-03-01T13:03:42;8.90;99.90
12130;DHT22;6128;59.340;18.040;2023-03-01T13:06:17;8.90;99.90
12130;DHT22;6128;59.340;18.040;2023-03-01T13:08:50;9.00;99.90
12130;DHT22;6128;59.340;18.040;2023-03-01T13:11:22;9.10;99.90
12130;DHT22;6128;59.340;18.040;2023-03-01T13:13:50;9.20;99.90
12130;DHT22;6128;59.340;18.040;2023-03-01T13:16:22;9.30;99.90
12130;DHT22;6128;59.340;18.040;2023-03-01T13:19:12;9.30;99.90
12130;DHT22;6128;59.340;18.040;2023-03-01T13:21:41;9.20;99.90
12130;DHT22;6128;59.340;18.040;2023-03-01T13:24:24;9.10;99.90
12130;DHT22;6128;59.340;18.040;2023-03-01T13:27:23;9.10;99.90
12130;DHT22;6128;59.340;18.040;2023-03-01T13:29:56;9.00;99.90
12130;DHT22;6128;59.340;18.040;2023-03-01T13:32:26;8.90;99.90
12130;DHT22;6128;59.340;18.040;2023-03-01T13:34:56;8.90;99.90
12130;DHT22;6128;59.340;18.040;2023-03-01T13:43:32;8.80;99.90
12130;DHT22;6128;59.340;18.040;2023-03-01T13:46:00;8.90;99.90
12130;DHT22;6128;59.340;18.040;2023-03-01T13:48:30;8.80;99.90
12130;DHT22;6128;59.340;18.040;2023-03-01T13:51:00;8.80;99.90
12130;DHT22;6128;59.340;18.040;2023-03-01T13:53:31;8.70;99.90
12130;DHT22;6128;59.340;18.040;2023-03-01T13:56:02;8.70;99.90
12130;DHT22;6128;59.340;18.040;2023-03-01T13:58:33;8.60;99.90
12130;DHT22;6128;59.340;18.040;2023-03-01T14:01:03;8.60;99.90
12130;DHT22;6128;59.340;18.040;2023-03-01T14:03:32;8.60;99.90
12130;DHT22;6128;59.340;18.040;2023-03-01T14:06:04;8.60;99.90
12130;DHT22;6128;59.340;18.040;2023-03-01T14:08:35;8.60;99.90
12130;DHT22;6128;59.340;18.040;2023-03-01T14:11:29;8.50;99.90
12130;DHT22;6128;59.340;18.040;2023-03-01T14:14:30;8.50;99.90
12130;DHT22;6128;59.340;18.040;2023-03-01T14:19:56;8.60;99.90
12130;DHT22;6128;59.340;18.040;2023-03-01T14:22:28;8.70;99.90
12130;DHT22;6128;59.340;18.040;2023-03-01T14:24:56;8.70;99.90
12130;DHT22;6128;59.340;18.040;2023-03-01T14:27:35;8.80;99.90
12130;DHT22;6128;59.340;18.040;2023-03-01T14:30:14;8.90;99.90
12130;DHT22;6128;59.340;18.040;2023-03-01T14:32:52;8.90;99.90
12130;DHT22;6128;59.340;18.040;2023-03-01T14:35:22;9.00;99.90
12130;DHT22;6128;59.340;18.040;2023-03-01T14:37:50;9.00;99.90
12130;DHT22;6128;59.340;18.040;2023-03-01T14:40:24;9.00;99.90
12130;DHT22;6128;59.340;18.040;2023-03-01T14:42:52;9.10;99.90
12130;DHT22;6128;59.340;18.040;2023-03-01T14:45:23;9.00;99.90
12130;DHT22;6128;59.340;18.040;2023-03-01T14:47:51;9.10;99.90
12130;DHT22;6128;59.340;18.040;2023-03-01T14:50:23;9.10;99.90
12130;DHT22;6128;59.340;18.040;2023-03-01T14:52:53;9.10;99.90
12130;DHT22;6128;59.340;18.040;2023-03-01T14:55:24;9.10;99.90
12130;DHT22;6128;59.340;18.040;2023-03-01T14:57:52;9.10;99.90
12130;DHT22;6128;59.340;18.040;2023-03-01T15:00:23;9.10;99.90
12130;DHT22;6128;59.340;18.040;2023-03-01T15:02:52;9.10;99.90
12130;DHT22;6128;59.340;18.040;2023-03-01T15:05:26;9.10;99.90
12130;DHT22;6128;59.340;18.040;2023-03-01T15:07:55;9.10;99.90
12130;DHT22;6128;59.340;18.040;2023-03-01T15:10:26;9.00;99.90
12130;DHT22;6128;59.340;18.040;2023-03-01T15:12:53;9.10;99.90
12130;DHT22;6128;59.340;18.040;2023-03-01T15:15:34;9.00;99.90
12130;DHT22;6128;59.340;18.040;2023-03-01T15:18:04;9.00;99.90
12130;DHT22;6128;59.340;18.040;2023-03-01T15:20:33;9.00;99.90
12130;DHT22;6128;59.340;18.040;2023-03-01T15:23:04;9.00;99.90
12130;DHT22;6128;59.340;18.040;2023-03-01T15:25:32;8.90;99.90
12130;DHT22;6128;59.340;18.040;2023-03-01T15:28:01;8.90;99.90
12130;DHT22;6128;59.340;18.040;2023-03-01T15:30:35;8.90;99.90
12130;DHT22;6128;59.340;18.040;2023-03-01T15:33:29;8.90;99.90
12130;DHT22;6128;59.340;18.040;2023-03-01T15:35:58;8.90;99.90
12130;DHT22;6128;59.340;18.040;2023-03-01T15:38:28;8.90;99.90
12130;DHT22;6128;59.340;18.040;2023-03-01T15:40:57;8.80;99.90
12130;DHT22;6128;59.340;18.040;2023-03-01T15:43:42;8.80;99.90
12130;DHT22;6128;59.340;18.040;2023-03-01T15:46:17;8.80;99.90
12130;DHT22;6128;59.340;18.040;2023-03-01T15:48:47;8.80;99.90
12130;DHT22;6128;59.340;18.040;2023-03-01T15:51:15;8.70;99.90
12130;DHT22;6128;59.340;18.040;2023-03-01T15:53:46;8.70;99.90
12130;DHT22;6128;59.340;18.040;2023-03-01T15:56:21;8.70;99.90
12130;DHT22;6128;59.340;18.040;2023-03-01T15:58:48;8.70;99.90
12130;DHT22;6128;59.340;18.040;2023-03-01T16:01:17;8.70;99.90
12130;DHT22;6128;59.340;18.040;2023-03-01T16:03:45;8.70;99.90
12130;DHT22;6128;59.340;18.040;2023-03-01T16:06:12;8.60;99.90
12130;DHT22;6128;59.340;18.040;2023-03-01T16:08:39;8.60;99.90
12130;DHT22;6128;59.340;18.040;2023-03-01T16:11:14;8.60;99.90
12130;DHT22;6128;59.340;18.040;2023-03-01T16:13:41;8.60;99.90
12130;DHT22;6128;59.340;18.040;2023-03-01T16:16:10;8.60;99.90
12130;DHT22;6128;59.340;18.040;2023-03-01T16:18:42;8.60;99.90
12130;DHT22;6128;59.340;18.040;2023-03-01T16:21:15;8.50;99.90
12130;DHT22;6128;59.340;18.040;2023-03-01T16:23:43;8.50;99.90
12130;DHT22;6128;59.340;18.040;2023-03-01T16:26:12;8.50;99.90
12130;DHT22;6128;59.340;18.040;2023-03-01T16:28:39;8.50;99.90